sensor_id;sensor_type;location;lat;lon;timestamp;P1;durP1;ratioP1;P2;durP2;ratioP2
56991;SDS011;42885;49.754;18.636;2023-03-13T00:02:08;3.35;;;2.27;;
56991;SDS011;42885;49.754;18.636;2023-03-13T00:04:39;4.70;;;2.30;;
56991;SDS011;42885;49.754;18.636;2023-03-13T00:07:12;4.95;;;2.35;;
56991;SDS011;42885;49.754;18.636;2023-03-13T00:09:44;3.00;;;2.22;;
56991;SDS011;42885;49.754;18.636;2023-03-13T00:12:15;4.13;;;2.27;;
56991;SDS011;42885;49.754;18.636;2023-03-13T00:14:47;6.60;;;2.62;;
56991;SDS011;42885;49.754;18.636;2023-03-13T00:17:18;5.90;;;3.42;;
56991;SDS011;42885;49.754;18.636;2023-03-13T00:19:49;6.15;;;3.12;;
56991;SDS011;42885;49.754;18.636;2023-03-13T00:24:53;7.25;;;3.10;;
56991;SDS011;42885;49.754;18.636;2023-03-13T00:27:25;5.72;;;3.37;;
56991;SDS011;42885;49.754;18.636;2023-03-13T00:29:56;6.12;;;3.60;;
56991;SDS011;42885;49.754;18.636;2023-03-13T00:32:27;6.28;;;3.20;;
56991;SDS011;42885;49.754;18.636;2023-03-13T00:34:58;7.03;;;3.02;;
56991;SDS011;42885;49.754;18.636;2023-03-13T00:37:30;4.75;;;3.10;;
56991;SDS011;42885;49.754;18.636;2023-03-13T00:40:02;6.57;;;2.97;;
56991;SDS011;42885;49.754;18.636;2023-03-13T00:42:34;7.47;;;3.22;;
56991;SDS011;42885;49.754;18.636;2023-03-13T00:45:05;4.90;;;3.07;;
56991;SDS011;42885;49.754;18.636;2023-03-13T00:47:36;4.87;;;3.20;;
56991;SDS011;42885;49.754;18.636;2023-03-13T00:50:08;4.75;;;3.33;;
56991;SDS011;42885;49.754;18.636;2023-03-13T00:52:39;6.58;;;3.35;;
56991;SDS011;42885;49.754;18.636;2023-03-13T00:55:10;4.97;;;3.10;;
56991;SDS011;42885;49.754;18.636;2023-03-13T00:57:41;5.58;;;3.02;;
56991;SDS011;42885;49.754;18.636;2023-03-13T01:00:13;4.53;;;3.33;;
56991;SDS011;42885;49.754;18.636;2023-03-13T01:02:44;4.12;;;2.72;;
56991;SDS011;42885;49.754;18.636;2023-03-13T01:05:15;5.42;;;3.30;;
56991;SDS011;42885;49.754;18.636;2023-03-13T01:07:47;5.92;;;3.45;;
56991;SDS011;42885;49.754;18.636;2023-03-13T01:10:19;6.67;;;3.53;;
56991;SDS011;42885;49.754;18.636;2023-03-13T01:12:50;5.22;;;3.40;;
56991;SDS011;42885;49.754;18.636;2023-03-13T01:15:21;9.05;;;3.60;;
56991;SDS011;42885;49.754;18.636;2023-03-13T01:17:52;4.73;;;3.37;;
56991;SDS011;42885;49.754;18.636;2023-03-13T01:20:23;5.08;;;3.65;;
56991;SDS011;42885;49.754;18.636;2023-03-13T01:22:54;4.45;;;3.75;;
56991;SDS011;42885;49.754;18.636;2023-03-13T01:25:26;4.72;;;3.50;;
56991;SDS011;42885;49.754;18.636;2023-03-13T01:27:57;7.00;;;3.60;;
56991;SDS011;42885;49.754;18.636;2023-03-13T01:30:29;5.10;;;3.17;;
56991;SDS011;42885;49.754;18.636;2023-03-13T01:33:01;5.05;;;3.20;;
56991;SDS011;42885;49.754;18.636;2023-03-13T01:35:32;4.45;;;3.55;;
56991;SDS011;42885;49.754;18.636;2023-03-13T01:38:03;4.30;;;3.15;;
56991;SDS011;42885;49.754;18.636;2023-03-13T01:40:38;6.95;;;3.67;;
56991;SDS011;42885;49.754;18.636;2023-03-13T01:43:18;6.63;;;4.10;;
56991;SDS011;42885;49.754;18.636;2023-03-13T01:45:59;6.87;;;3.77;;
56991;SDS011;42885;49.754;18.636;2023-03-13T01:48:39;4.47;;;3.30;;
56991;SDS011;42885;49.754;18.636;2023-03-13T01:51:32;4.97;;;3.17;;
56991;SDS011;42885;49.754;18.636;2023-03-13T01:54:24;5.37;;;3.60;;
56991;SDS011;42885;49.754;18.636;2023-03-13T01:57:07;5.45;;;3.35;;
56991;SDS011;42885;49.754;18.636;2023-03-13T01:59:56;6.10;;;3.40;;
56991;SDS011;42885;49.754;18.636;2023-03-13T02:02:39;5.95;;;3.65;;
56991;SDS011;42885;49.754;18.636;2023-03-13T02:05:16;5.47;;;3.40;;
56991;SDS011;42885;49.754;18.636;2023-03-13T02:07:52;5.45;;;3.35;;
56991;SDS011;42885;49.754;18.636;2023-03-13T02:10:32;6.35;;;4.17;;
56991;SDS011;42885;49.754;18.636;2023-03-13T02:13:06;7.27;;;4.47;;
56991;SDS011;42885;49.754;18.636;2023-03-13T02:15:40;6.90;;;4.67;;
56991;SDS011;42885;49.754;18.636;2023-03-13T02:18:11;7.73;;;4.60;;
56991;SDS011;42885;49.754;18.636;2023-03-13T02:20:43;7.55;;;4.58;;
56991;SDS011;42885;49.754;18.636;2023-03-13T02:25:54;7.45;;;4.67;;
56991;SDS011;42885;49.754;18.636;2023-03-13T02:31:01;7.50;;;5.40;;
56991;SDS011;42885;49.754;18.636;2023-03-13T02:33:38;8.13;;;5.10;;
56991;SDS011;42885;49.754;18.636;2023-03-13T02:36:06;10.30;;;6.47;;
56991;SDS011;42885;49.754;18.636;2023-03-13T02:38:41;7.30;;;5.30;;
56991;SDS011;42885;49.754;18.636;2023-03-13T02:41:12;6.65;;;4.30;;
56991;SDS011;42885;49.754;18.636;2023-03-13T02:43:44;10.18;;;6.15;;
56991;SDS011;42885;49.754;18.636;2023-03-13T02:46:17;9.00;;;5.33;;
56991;SDS011;42885;49.754;18.636;2023-03-13T02:48:52;6.83;;;4.22;;
56991;SDS011;42885;49.754;18.636;2023-03-13T02:51:37;7.33;;;4.00;;
56991;SDS011;42885;49.754;18.636;2023-03-13T02:54:11;8.35;;;4.22;;
56991;SDS011;42885;49.754;18.636;2023-03-13T02:56:45;4.87;;;4.17;;
56991;SDS011;42885;49.754;18.636;2023-03-13T02:59:18;5.42;;;4.33;;
56991;SDS011;42885;49.754;18.636;2023-03-13T03:01:50;6.85;;;4.42;;
56991;SDS011;42885;49.754;18.636;2023-03-13T03:04:23;7.45;;;4.47;;
56991;SDS011;42885;49.754;18.636;2023-03-13T03:06:56;8.48;;;5.00;;
56991;SDS011;42885;49.754;18.636;2023-03-13T03:09:28;8.13;;;4.80;;
56991;SDS011;42885;49.754;18.636;2023-03-13T03:14:31;6.10;;;4.47;;
56991;SDS011;42885;49.754;18.636;2023-03-13T03:17:02;7.62;;;4.67;;
56991;SDS011;42885;49.754;18.636;2023-03-13T03:19:34;7.78;;;4.75;;
56991;SDS011;42885;49.754;18.636;2023-03-13T03:22:06;6.70;;;4.67;;
56991;SDS011;42885;49.754;18.636;2023-03-13T03:24:37;7.47;;;4.58;;
56991;SDS011;42885;49.754;18.636;2023-03-13T03:27:08;6.70;;;4.67;;
56991;SDS011;42885;49.754;18.636;2023-03-13T03:29:40;7.83;;;5.00;;
56991;SDS011;42885;49.754;18.636;2023-03-13T03:32:12;9.50;;;4.50;;
56991;SDS011;42885;49.754;18.636;2023-03-13T03:34:43;9.88;;;5.00;;
56991;SDS011;42885;49.754;18.636;2023-03-13T03:37:15;6.30;;;4.70;;
56991;SDS011;42885;49.754;18.636;2023-03-13T03:39:46;7.17;;;4.37;;
56991;SDS011;42885;49.754;18.636;2023-03-13T03:42:17;6.67;;;4.87;;
56991;SDS011;42885;49.754;18.636;2023-03-13T03:44:48;6.47;;;4.60;;
56991;SDS011;42885;49.754;18.636;2023-03-13T03:47:21;6.30;;;4.33;;
56991;SDS011;42885;49.754;18.636;2023-03-13T03:49:52;8.08;;;5.20;;
56991;SDS011;42885;49.754;18.636;2023-03-13T03:52:23;10.40;;;4.83;;
56991;SDS011;42885;49.754;18.636;2023-03-13T03:54:55;8.68;;;5.05;;
56991;SDS011;42885;49.754;18.636;2023-03-13T03:57:26;12.13;;;5.80;;
56991;SDS011;42885;49.754;18.636;2023-03-13T03:59:58;9.05;;;5.78;;
56991;SDS011;42885;49.754;18.636;2023-03-13T04:02:29;7.58;;;5.12;;
56991;SDS011;42885;49.754;18.636;2023-03-13T04:05:00;9.27;;;5.30;;
56991;SDS011;42885;49.754;18.636;2023-03-13T04:10:03;11.03;;;6.03;;
56991;SDS011;42885;49.754;18.636;2023-03-13T04:12:39;9.68;;;6.00;;
56991;SDS011;42885;49.754;18.636;2023-03-13T04:15:11;7.73;;;5.50;;
56991;SDS011;42885;49.754;18.636;2023-03-13T04:17:42;8.90;;;5.78;;
56991;SDS011;42885;49.754;18.636;2023-03-13T04:20:14;9.10;;;5.15;;
56991;SDS011;42885;49.754;18.636;2023-03-13T04:22:45;8.45;;;5.15;;
56991;SDS011;42885;49.754;18.636;2023-03-13T04:25:18;7.90;;;5.20;;
56991;SDS011;42885;49.754;18.636;2023-03-13T04:27:51;7.92;;;4.90;;
56991;SDS011;42885;49.754;18.636;2023-03-13T04:30:23;11.55;;;5.55;;
56991;SDS011;42885;49.754;18.636;2023-03-13T04:33:05;6.40;;;4.85;;
56991;SDS011;42885;49.754;18.636;2023-03-13T04:35:44;6.83;;;4.70;;
56991;SDS011;42885;49.754;18.636;2023-03-13T04:38:25;11.50;;;5.20;;
56991;SDS011;42885;49.754;18.636;2023-03-13T04:41:07;8.15;;;5.03;;
56991;SDS011;42885;49.754;18.636;2023-03-13T04:43:57;10.60;;;5.12;;
56991;SDS011;42885;49.754;18.636;2023-03-13T04:46:32;7.80;;;4.72;;
56991;SDS011;42885;49.754;18.636;2023-03-13T04:49:17;7.97;;;4.90;;
56991;SDS011;42885;49.754;18.636;2023-03-13T04:51:56;9.33;;;5.05;;
56991;SDS011;42885;49.754;18.636;2023-03-13T04:54:29;9.35;;;4.78;;
56991;SDS011;42885;49.754;18.636;2023-03-13T04:57:07;9.50;;;5.50;;
56991;SDS011;42885;49.754;18.636;2023-03-13T04:59:40;7.17;;;5.05;;
56991;SDS011;42885;49.754;18.636;2023-03-13T05:02:29;8.88;;;4.30;;
56991;SDS011;42885;49.754;18.636;2023-03-13T05:05:16;9.60;;;5.22;;
56991;SDS011;42885;49.754;18.636;2023-03-13T05:07:56;9.13;;;5.45;;
56991;SDS011;42885;49.754;18.636;2023-03-13T05:10:44;10.18;;;4.65;;
56991;SDS011;42885;49.754;18.636;2023-03-13T05:13:20;10.80;;;5.20;;
56991;SDS011;42885;49.754;18.636;2023-03-13T05:15:53;15.00;;;5.50;;
56991;SDS011;42885;49.754;18.636;2023-03-13T05:18:26;10.72;;;5.55;;
56991;SDS011;42885;49.754;18.636;2023-03-13T05:21:05;10.58;;;6.03;;
56991;SDS011;42885;49.754;18.636;2023-03-13T05:23:56;10.00;;;5.78;;
56991;SDS011;42885;49.754;18.636;2023-03-13T05:29:01;12.63;;;6.67;;
56991;SDS011;42885;49.754;18.636;2023-03-13T05:31:34;13.20;;;6.20;;
56991;SDS011;42885;49.754;18.636;2023-03-13T05:34:15;16.00;;;5.92;;
56991;SDS011;42885;49.754;18.636;2023-03-13T05:36:54;8.13;;;5.28;;
56991;SDS011;42885;49.754;18.636;2023-03-13T05:39:43;10.20;;;5.75;;
56991;SDS011;42885;49.754;18.636;2023-03-13T05:42:16;12.75;;;5.53;;
56991;SDS011;42885;49.754;18.636;2023-03-13T05:44:52;11.12;;;5.72;;
56991;SDS011;42885;49.754;18.636;2023-03-13T05:47:31;11.50;;;6.05;;
56991;SDS011;42885;49.754;18.636;2023-03-13T05:50:09;10.23;;;5.87;;
56991;SDS011;42885;49.754;18.636;2023-03-13T05:52:43;11.33;;;6.17;;
56991;SDS011;42885;49.754;18.636;2023-03-13T05:55:31;10.87;;;6.40;;
56991;SDS011;42885;49.754;18.636;2023-03-13T05:58:05;10.67;;;6.50;;
56991;SDS011;42885;49.754;18.636;2023-03-13T06:00:53;13.48;;;7.12;;
56991;SDS011;42885;49.754;18.636;2023-03-13T06:03:32;11.35;;;6.72;;
56991;SDS011;42885;49.754;18.636;2023-03-13T06:06:03;10.87;;;6.60;;
56991;SDS011;42885;49.754;18.636;2023-03-13T06:08:36;9.05;;;6.10;;
56991;SDS011;42885;49.754;18.636;2023-03-13T06:11:08;9.95;;;6.30;;
56991;SDS011;42885;49.754;18.636;2023-03-13T06:13:40;9.70;;;6.10;;
56991;SDS011;42885;49.754;18.636;2023-03-13T06:16:13;14.20;;;6.20;;
56991;SDS011;42885;49.754;18.636;2023-03-13T06:18:46;12.10;;;6.35;;
56991;SDS011;42885;49.754;18.636;2023-03-13T06:21:17;11.00;;;5.75;;
56991;SDS011;42885;49.754;18.636;2023-03-13T06:23:49;10.15;;;6.67;;
56991;SDS011;42885;49.754;18.636;2023-03-13T06:26:20;11.83;;;7.17;;
56991;SDS011;42885;49.754;18.636;2023-03-13T06:28:53;14.20;;;7.20;;
56991;SDS011;42885;49.754;18.636;2023-03-13T06:31:24;13.45;;;7.70;;
56991;SDS011;42885;49.754;18.636;2023-03-13T06:33:56;11.88;;;7.08;;
56991;SDS011;42885;49.754;18.636;2023-03-13T06:36:27;11.68;;;7.12;;
56991;SDS011;42885;49.754;18.636;2023-03-13T06:38:58;10.55;;;6.60;;
56991;SDS011;42885;49.754;18.636;2023-03-13T06:41:29;8.75;;;6.45;;
56991;SDS011;42885;49.754;18.636;2023-03-13T06:44:01;9.10;;;6.00;;
56991;SDS011;42885;49.754;18.636;2023-03-13T06:46:33;9.35;;;5.90;;
56991;SDS011;42885;49.754;18.636;2023-03-13T06:49:04;10.57;;;6.17;;
56991;SDS011;42885;49.754;18.636;2023-03-13T06:51:35;8.25;;;6.40;;
56991;SDS011;42885;49.754;18.636;2023-03-13T06:54:07;12.43;;;6.72;;
56991;SDS011;42885;49.754;18.636;2023-03-13T06:56:38;12.28;;;6.95;;
56991;SDS011;42885;49.754;18.636;2023-03-13T06:59:09;8.90;;;6.53;;
56991;SDS011;42885;49.754;18.636;2023-03-13T07:01:40;14.23;;;7.07;;
56991;SDS011;42885;49.754;18.636;2023-03-13T07:04:11;10.67;;;6.53;;
56991;SDS011;42885;49.754;18.636;2023-03-13T07:06:44;11.50;;;7.03;;
56991;SDS011;42885;49.754;18.636;2023-03-13T07:09:15;12.10;;;7.33;;
56991;SDS011;42885;49.754;18.636;2023-03-13T07:11:48;11.47;;;6.53;;
56991;SDS011;42885;49.754;18.636;2023-03-13T07:14:19;10.10;;;6.60;;
56991;SDS011;42885;49.754;18.636;2023-03-13T07:16:51;9.15;;;6.28;;
56991;SDS011;42885;49.754;18.636;2023-03-13T07:19:22;9.65;;;6.42;;
56991;SDS011;42885;49.754;18.636;2023-03-13T07:21:53;10.53;;;7.28;;
56991;SDS011;42885;49.754;18.636;2023-03-13T07:24:25;10.82;;;6.53;;
56991;SDS011;42885;49.754;18.636;2023-03-13T07:26:56;9.20;;;5.65;;
56991;SDS011;42885;49.754;18.636;2023-03-13T07:29:30;7.20;;;6.00;;
56991;SDS011;42885;49.754;18.636;2023-03-13T07:32:01;9.68;;;5.95;;
56991;SDS011;42885;49.754;18.636;2023-03-13T07:34:33;8.35;;;6.10;;
56991;SDS011;42885;49.754;18.636;2023-03-13T07:37:04;12.03;;;6.50;;
56991;SDS011;42885;49.754;18.636;2023-03-13T07:39:35;13.32;;;7.05;;
56991;SDS011;42885;49.754;18.636;2023-03-13T07:42:08;10.53;;;6.97;;
56991;SDS011;42885;49.754;18.636;2023-03-13T07:44:42;10.50;;;7.05;;
56991;SDS011;42885;49.754;18.636;2023-03-13T07:47:14;10.80;;;6.60;;
56991;SDS011;42885;49.754;18.636;2023-03-13T07:49:45;10.75;;;6.28;;
56991;SDS011;42885;49.754;18.636;2023-03-13T07:52:16;12.85;;;7.17;;
56991;SDS011;42885;49.754;18.636;2023-03-13T07:54:48;10.30;;;6.58;;
56991;SDS011;42885;49.754;18.636;2023-03-13T07:57:19;12.80;;;7.35;;
56991;SDS011;42885;49.754;18.636;2023-03-13T07:59:50;12.75;;;6.53;;
56991;SDS011;42885;49.754;18.636;2023-03-13T08:02:21;10.93;;;6.30;;
56991;SDS011;42885;49.754;18.636;2023-03-13T08:04:53;11.45;;;6.30;;
56991;SDS011;42885;49.754;18.636;2023-03-13T08:07:24;9.15;;;6.03;;
56991;SDS011;42885;49.754;18.636;2023-03-13T08:09:56;11.40;;;6.28;;
56991;SDS011;42885;49.754;18.636;2023-03-13T08:12:27;14.58;;;6.33;;
56991;SDS011;42885;49.754;18.636;2023-03-13T08:14:58;10.50;;;5.57;;
56991;SDS011;42885;49.754;18.636;2023-03-13T08:17:29;12.85;;;6.53;;
56991;SDS011;42885;49.754;18.636;2023-03-13T08:20:00;8.93;;;5.30;;
56991;SDS011;42885;49.754;18.636;2023-03-13T08:22:31;11.15;;;5.45;;
56991;SDS011;42885;49.754;18.636;2023-03-13T08:25:07;8.60;;;4.90;;
56991;SDS011;42885;49.754;18.636;2023-03-13T08:27:38;12.25;;;5.97;;
56991;SDS011;42885;49.754;18.636;2023-03-13T08:30:09;10.95;;;5.30;;
56991;SDS011;42885;49.754;18.636;2023-03-13T08:32:41;12.35;;;5.60;;
56991;SDS011;42885;49.754;18.636;2023-03-13T08:35:12;11.83;;;5.65;;
56991;SDS011;42885;49.754;18.636;2023-03-13T08:37:43;14.50;;;5.45;;
56991;SDS011;42885;49.754;18.636;2023-03-13T08:40:15;8.73;;;5.15;;
56991;SDS011;42885;49.754;18.636;2023-03-13T08:42:46;9.15;;;5.53;;
56991;SDS011;42885;49.754;18.636;2023-03-13T08:45:17;9.88;;;4.87;;
56991;SDS011;42885;49.754;18.636;2023-03-13T08:47:52;12.78;;;5.28;;
56991;SDS011;42885;49.754;18.636;2023-03-13T08:50:24;10.00;;;5.80;;
56991;SDS011;42885;49.754;18.636;2023-03-13T08:52:55;16.23;;;5.75;;
56991;SDS011;42885;49.754;18.636;2023-03-13T08:55:26;14.30;;;5.83;;
56991;SDS011;42885;49.754;18.636;2023-03-13T08:57:57;9.20;;;5.83;;
56991;SDS011;42885;49.754;18.636;2023-03-13T09:00:28;8.95;;;5.35;;
56991;SDS011;42885;49.754;18.636;2023-03-13T09:02:59;11.48;;;5.42;;
56991;SDS011;42885;49.754;18.636;2023-03-13T09:05:30;12.58;;;5.50;;
56991;SDS011;42885;49.754;18.636;2023-03-13T09:08:02;10.72;;;5.22;;
56991;SDS011;42885;49.754;18.636;2023-03-13T09:10:33;8.00;;;3.20;;
56991;SDS011;42885;49.754;18.636;2023-03-13T09:13:05;9.35;;;3.92;;
56991;SDS011;42885;49.754;18.636;2023-03-13T09:15:36;10.55;;;3.52;;
56991;SDS011;42885;49.754;18.636;2023-03-13T09:18:07;7.93;;;3.27;;
56991;SDS011;42885;49.754;18.636;2023-03-13T09:20:38;7.28;;;3.35;;
56991;SDS011;42885;49.754;18.636;2023-03-13T09:23:11;9.48;;;3.40;;
56991;SDS011;42885;49.754;18.636;2023-03-13T09:25:42;3.95;;;1.98;;
56991;SDS011;42885;49.754;18.636;2023-03-13T09:28:14;7.17;;;2.40;;
56991;SDS011;42885;49.754;18.636;2023-03-13T09:30:45;5.60;;;2.33;;
56991;SDS011;42885;49.754;18.636;2023-03-13T09:33:18;5.90;;;2.45;;
56991;SDS011;42885;49.754;18.636;2023-03-13T09:35:52;8.10;;;2.45;;
56991;SDS011;42885;49.754;18.636;2023-03-13T09:38:23;7.08;;;2.70;;
56991;SDS011;42885;49.754;18.636;2023-03-13T09:40:59;6.78;;;2.60;;
56991;SDS011;42885;49.754;18.636;2023-03-13T09:46:32;9.35;;;3.98;;
56991;SDS011;42885;49.754;18.636;2023-03-13T09:52:21;12.88;;;4.00;;
56991;SDS011;42885;49.754;18.636;2023-03-13T09:54:58;6.78;;;3.50;;
56991;SDS011;42885;49.754;18.636;2023-03-13T10:00:15;7.10;;;2.85;;
56991;SDS011;42885;49.754;18.636;2023-03-13T10:02:59;7.67;;;2.62;;
56991;SDS011;42885;49.754;18.636;2023-03-13T10:05:52;6.67;;;2.50;;
56991;SDS011;42885;49.754;18.636;2023-03-13T10:08:21;7.83;;;2.42;;
56991;SDS011;42885;49.754;18.636;2023-03-13T10:11:05;10.08;;;2.60;;
56991;SDS011;42885;49.754;18.636;2023-03-13T10:13:48;7.20;;;3.17;;
56991;SDS011;42885;49.754;18.636;2023-03-13T10:16:32;14.15;;;4.12;;
56991;SDS011;42885;49.754;18.636;2023-03-13T10:19:14;9.50;;;3.45;;
56991;SDS011;42885;49.754;18.636;2023-03-13T10:21:51;10.72;;;3.50;;
56991;SDS011;42885;49.754;18.636;2023-03-13T10:24:32;6.22;;;2.10;;
56991;SDS011;42885;49.754;18.636;2023-03-13T10:27:06;9.73;;;2.85;;
56991;SDS011;42885;49.754;18.636;2023-03-13T10:29:40;9.05;;;2.60;;
56991;SDS011;42885;49.754;18.636;2023-03-13T10:32:13;7.50;;;2.30;;
56991;SDS011;42885;49.754;18.636;2023-03-13T10:37:24;6.87;;;2.40;;
56991;SDS011;42885;49.754;18.636;2023-03-13T10:40:10;8.78;;;2.45;;
56991;SDS011;42885;49.754;18.636;2023-03-13T10:42:59;9.43;;;2.55;;
56991;SDS011;42885;49.754;18.636;2023-03-13T10:45:36;4.72;;;1.85;;
56991;SDS011;42885;49.754;18.636;2023-03-13T10:48:12;5.33;;;2.37;;
56991;SDS011;42885;49.754;18.636;2023-03-13T10:50:52;5.50;;;1.87;;
56991;SDS011;42885;49.754;18.636;2023-03-13T10:56:14;4.05;;;1.80;;
56991;SDS011;42885;49.754;18.636;2023-03-13T10:58:43;8.75;;;1.70;;
56991;SDS011;42885;49.754;18.636;2023-03-13T11:01:17;4.08;;;1.65;;
56991;SDS011;42885;49.754;18.636;2023-03-13T11:03:57;3.90;;;1.80;;
56991;SDS011;42885;49.754;18.636;2023-03-13T11:09:14;3.12;;;1.55;;
56991;SDS011;42885;49.754;18.636;2023-03-13T11:11:52;4.87;;;1.52;;
56991;SDS011;42885;49.754;18.636;2023-03-13T11:14:24;2.52;;;1.70;;
56991;SDS011;42885;49.754;18.636;2023-03-13T11:17:19;2.67;;;1.37;;
56991;SDS011;42885;49.754;18.636;2023-03-13T11:26:15;5.00;;;1.80;;
56991;SDS011;42885;49.754;18.636;2023-03-13T11:31:50;5.65;;;1.70;;
56991;SDS011;42885;49.754;18.636;2023-03-13T11:34:27;4.53;;;2.10;;
56991;SDS011;42885;49.754;18.636;2023-03-13T11:37:16;6.42;;;2.00;;
56991;SDS011;42885;49.754;18.636;2023-03-13T11:39:54;4.72;;;2.00;;
56991;SDS011;42885;49.754;18.636;2023-03-13T11:45:54;4.30;;;1.65;;
56991;SDS011;42885;49.754;18.636;2023-03-13T11:51:44;6.95;;;1.60;;
56991;SDS011;42885;49.754;18.636;2023-03-13T11:57:12;7.57;;;2.57;;
56991;SDS011;42885;49.754;18.636;2023-03-13T12:03:30;8.25;;;2.77;;
56991;SDS011;42885;49.754;18.636;2023-03-13T12:05:28;5.57;;;2.17;;
56991;SDS011;42885;49.754;18.636;2023-03-13T12:08:03;5.72;;;2.25;;
56991;SDS011;42885;49.754;18.636;2023-03-13T12:10:37;3.92;;;2.17;;
56991;SDS011;42885;49.754;18.636;2023-03-13T12:15:48;2.83;;;2.00;;
56991;SDS011;42885;49.754;18.636;2023-03-13T12:26:50;2.98;;;1.70;;
56991;SDS011;42885;49.754;18.636;2023-03-13T12:29:47;2.30;;;1.60;;
56991;SDS011;42885;49.754;18.636;2023-03-13T12:32:35;5.00;;;2.20;;
56991;SDS011;42885;49.754;18.636;2023-03-13T12:35:20;4.28;;;1.90;;
56991;SDS011;42885;49.754;18.636;2023-03-13T12:38:07;5.50;;;1.98;;
56991;SDS011;42885;49.754;18.636;2023-03-13T12:43:50;7.55;;;3.00;;
56991;SDS011;42885;49.754;18.636;2023-03-13T12:49:01;6.83;;;2.65;;
56991;SDS011;42885;49.754;18.636;2023-03-13T13:00:33;5.47;;;3.05;;
56991;SDS011;42885;49.754;18.636;2023-03-13T13:03:09;8.13;;;3.22;;
56991;SDS011;42885;49.754;18.636;2023-03-13T13:06:03;4.53;;;2.90;;
56991;SDS011;42885;49.754;18.636;2023-03-13T13:08:40;5.10;;;3.10;;
56991;SDS011;42885;49.754;18.636;2023-03-13T13:16:57;8.20;;;4.17;;
56991;SDS011;42885;49.754;18.636;2023-03-13T13:19:46;7.37;;;4.58;;
56991;SDS011;42885;49.754;18.636;2023-03-13T13:27:50;9.78;;;5.30;;
56991;SDS011;42885;49.754;18.636;2023-03-13T13:32:53;7.12;;;4.72;;
56991;SDS011;42885;49.754;18.636;2023-03-13T13:35:26;7.65;;;5.20;;
56991;SDS011;42885;49.754;18.636;2023-03-13T13:40:59;7.22;;;4.42;;
56991;SDS011;42885;49.754;18.636;2023-03-13T13:43:46;7.83;;;4.20;;
56991;SDS011;42885;49.754;18.636;2023-03-13T13:46:21;6.08;;;4.10;;
56991;SDS011;42885;49.754;18.636;2023-03-13T13:49:10;6.66;;;4.44;;
56991;SDS011;42885;49.754;18.636;2023-03-13T13:51:44;8.05;;;4.58;;
56991;SDS011;42885;49.754;18.636;2023-03-13T13:54:35;9.90;;;4.00;;
56991;SDS011;42885;49.754;18.636;2023-03-13T13:57:18;17.67;;;8.67;;
56991;SDS011;42885;49.754;18.636;2023-03-13T14:05:22;6.05;;;3.90;;
56991;SDS011;42885;49.754;18.636;2023-03-13T14:11:17;6.05;;;3.02;;
56991;SDS011;42885;49.754;18.636;2023-03-13T14:13:45;7.60;;;2.95;;
56991;SDS011;42885;49.754;18.636;2023-03-13T14:16:36;7.90;;;3.93;;
56991;SDS011;42885;49.754;18.636;2023-03-13T14:19:26;10.13;;;4.50;;
56991;SDS011;42885;49.754;18.636;2023-03-13T14:22:04;7.37;;;4.30;;
56991;SDS011;42885;49.754;18.636;2023-03-13T14:24:36;5.12;;;3.27;;
56991;SDS011;42885;49.754;18.636;2023-03-13T14:27:17;6.53;;;4.05;;
56991;SDS011;42885;49.754;18.636;2023-03-13T14:30:00;9.48;;;5.10;;
56991;SDS011;42885;49.754;18.636;2023-03-13T14:32:33;8.47;;;4.33;;
56991;SDS011;42885;49.754;18.636;2023-03-13T14:35:04;8.03;;;5.03;;
56991;SDS011;42885;49.754;18.636;2023-03-13T14:37:40;9.65;;;5.10;;
56991;SDS011;42885;49.754;18.636;2023-03-13T14:42:57;7.30;;;4.22;;
56991;SDS011;42885;49.754;18.636;2023-03-13T14:45:31;9.88;;;5.03;;
56991;SDS011;42885;49.754;18.636;2023-03-13T14:50:50;9.40;;;5.27;;
56991;SDS011;42885;49.754;18.636;2023-03-13T14:53:23;12.00;;;5.10;;
56991;SDS011;42885;49.754;18.636;2023-03-13T14:58:44;10.30;;;5.62;;
56991;SDS011;42885;49.754;18.636;2023-03-13T15:01:25;11.22;;;4.55;;
56991;SDS011;42885;49.754;18.636;2023-03-13T15:03:59;10.93;;;5.03;;
56991;SDS011;42885;49.754;18.636;2023-03-13T15:06:31;11.97;;;4.78;;
56991;SDS011;42885;49.754;18.636;2023-03-13T15:09:22;8.83;;;4.47;;
56991;SDS011;42885;49.754;18.636;2023-03-13T15:17:22;8.73;;;4.20;;
56991;SDS011;42885;49.754;18.636;2023-03-13T15:19:48;10.70;;;3.80;;
56991;SDS011;42885;49.754;18.636;2023-03-13T15:22:26;7.40;;;4.27;;
56991;SDS011;42885;49.754;18.636;2023-03-13T15:24:56;5.62;;;3.50;;
56991;SDS011;42885;49.754;18.636;2023-03-13T15:27:28;9.68;;;4.47;;
56991;SDS011;42885;49.754;18.636;2023-03-13T15:29:59;5.92;;;3.33;;
56991;SDS011;42885;49.754;18.636;2023-03-13T15:32:37;9.30;;;4.67;;
56991;SDS011;42885;49.754;18.636;2023-03-13T15:35:16;9.28;;;4.90;;
56991;SDS011;42885;49.754;18.636;2023-03-13T15:37:56;8.68;;;4.80;;
56991;SDS011;42885;49.754;18.636;2023-03-13T15:40:28;9.08;;;4.92;;
56991;SDS011;42885;49.754;18.636;2023-03-13T15:43:01;10.53;;;5.13;;
56991;SDS011;42885;49.754;18.636;2023-03-13T15:45:32;9.48;;;5.30;;
56991;SDS011;42885;49.754;18.636;2023-03-13T15:48:14;7.73;;;4.57;;
56991;SDS011;42885;49.754;18.636;2023-03-13T15:50:51;8.48;;;3.95;;
56991;SDS011;42885;49.754;18.636;2023-03-13T15:53:25;5.62;;;3.22;;
56991;SDS011;42885;49.754;18.636;2023-03-13T15:55:59;18.82;;;13.60;;
56991;SDS011;42885;49.754;18.636;2023-03-13T15:58:31;21.77;;;16.87;;
56991;SDS011;42885;49.754;18.636;2023-03-13T16:01:03;7.40;;;3.90;;
56991;SDS011;42885;49.754;18.636;2023-03-13T16:03:34;6.72;;;3.83;;
56991;SDS011;42885;49.754;18.636;2023-03-13T16:06:15;6.58;;;3.55;;
56991;SDS011;42885;49.754;18.636;2023-03-13T16:08:50;5.67;;;4.00;;
56991;SDS011;42885;49.754;18.636;2023-03-13T16:11:21;8.10;;;4.15;;
56991;SDS011;42885;49.754;18.636;2023-03-13T16:13:53;7.10;;;3.92;;
56991;SDS011;42885;49.754;18.636;2023-03-13T16:16:28;8.43;;;3.15;;
56991;SDS011;42885;49.754;18.636;2023-03-13T16:19:01;4.97;;;2.83;;
56991;SDS011;42885;49.754;18.636;2023-03-13T16:21:33;5.62;;;2.52;;
56991;SDS011;42885;49.754;18.636;2023-03-13T16:24:06;5.08;;;2.77;;
56991;SDS011;42885;49.754;18.636;2023-03-13T16:26:37;5.58;;;2.30;;
56991;SDS011;42885;49.754;18.636;2023-03-13T16:29:14;4.40;;;2.40;;
56991;SDS011;42885;49.754;18.636;2023-03-13T16:31:46;3.62;;;2.47;;
56991;SDS011;42885;49.754;18.636;2023-03-13T16:34:17;6.20;;;2.45;;
56991;SDS011;42885;49.754;18.636;2023-03-13T16:36:48;5.87;;;2.85;;
56991;SDS011;42885;49.754;18.636;2023-03-13T16:39:20;4.25;;;2.45;;
56991;SDS011;42885;49.754;18.636;2023-03-13T16:41:51;4.87;;;2.30;;
56991;SDS011;42885;49.754;18.636;2023-03-13T16:44:22;5.72;;;2.50;;
56991;SDS011;42885;49.754;18.636;2023-03-13T16:46:53;7.22;;;3.08;;
56991;SDS011;42885;49.754;18.636;2023-03-13T16:49:25;5.12;;;2.95;;
56991;SDS011;42885;49.754;18.636;2023-03-13T16:51:56;5.45;;;2.80;;
56991;SDS011;42885;49.754;18.636;2023-03-13T16:54:27;6.17;;;3.20;;
56991;SDS011;42885;49.754;18.636;2023-03-13T16:56:58;5.97;;;2.87;;
56991;SDS011;42885;49.754;18.636;2023-03-13T16:59:31;4.53;;;2.93;;
56991;SDS011;42885;49.754;18.636;2023-03-13T17:02:02;6.30;;;3.37;;
56991;SDS011;42885;49.754;18.636;2023-03-13T17:04:33;4.17;;;2.87;;
56991;SDS011;42885;49.754;18.636;2023-03-13T17:07:10;8.27;;;2.93;;
56991;SDS011;42885;49.754;18.636;2023-03-13T17:09:51;6.17;;;2.55;;
56991;SDS011;42885;49.754;18.636;2023-03-13T17:12:23;4.65;;;2.42;;
56991;SDS011;42885;49.754;18.636;2023-03-13T17:14:54;11.63;;;2.62;;